SBOSBO YYT / CYYT
Speedbird OnlineSpeedbird Online YYT / CYYT

St. John's International Airport
05:06 8.4°C

Location St. John's, Canada
Latitude: 47.618598938
Longitude: -52.7518997192
Web Airport Website | Wikipedia
Altitude 141 Meter / 461 Feet
Distance 3,755 KM / 2,333 Miles
from London.
Time Zone UTC -2.5 hours (America/St_Johns)
Codes IATA: YYT
ICAO: CYYT
Currency £1 equals CAD 1.54
Runways
RunwayLength (m)Surface
021533Asphalt
112591Asphalt
162135Asphalt
201533Asphalt
292591Asphalt
342135Asphalt
Radio
TypeDescriptionFrequency
ATISATIS128
CNTRGANDER CNTR133.15
FBOShell123
GNDGND121.9
RCOHALIFAX RDO123.275
TWRTWR120.6
Live ATC
METAR CYYT 060700Z 24003KT 220V300 15SM BKN220 09/08 A3009 RMK CI6 SLP195
TAF TAF CYYT 060540Z 0606/0706 24008KT P6SM SKC PROB30 0606/0610 1SM BR FM061000 18008KT P6SM BKN180 FM061300 17010KT P6SM OVC140 FM061700 14008KT P6SM FEW007 BKN100 TEMPO 0620/0623 P6SM -RA BKN007 OVC100 FM062300 11007KT 2SM -RA -DZ BR OVC003 TEMPO 0623/0704 6SM BR SCT003 OVC060 FM070400 07010KT 1/2SM -RA -DZ FG VV002 RMK NXT FCST BY 061200Z
Weather As Of 06 Oct 2022 05:06
Description Broken clouds
Wind 6 km/h from South-West (240°)
Cloud Cover 75%
Precipitation Rain: none, Snow: none
Sunrise 07:06
Sunset 18:31
Rotations During the last 90 days there were
1 flights from KIN
1 flights to DUB


© 2017-2022 Speedbird Online